createdAt,value
2022-08-21T00:01:22.340Z,101690.84
2022-08-21T00:04:48.230Z,101681.63
2022-08-21T00:08:22.230Z,101674.69
2022-08-21T00:11:45.232Z,101666.75
2022-08-21T00:15:08.550Z,101662.00
2022-08-21T00:18:32.213Z,101656.19
2022-08-21T00:21:56.177Z,101662.94
2022-08-21T00:25:24.379Z,101664.03
2022-08-21T00:28:50.206Z,101659.06
2022-08-21T00:32:13.315Z,101653.03
2022-08-21T00:35:39.187Z,101656.16
2022-08-21T00:39:02.285Z,101652.72
2022-08-21T00:42:29.199Z,101637.44
2022-08-21T00:45:53.494Z,101633.16
2022-08-21T00:49:16.244Z,101625.59
2022-08-21T00:52:41.413Z,101620.25
2022-08-21T00:56:04.204Z,101620.25
2022-08-21T00:59:27.344Z,101608.75
2022-08-21T01:02:51.289Z,101594.19
2022-08-21T01:06:15.215Z,101602.47
2022-08-21T01:09:39.217Z,101578.38
2022-08-21T01:13:02.303Z,101582.31
2022-08-21T01:16:25.240Z,101576.94
2022-08-21T01:19:48.250Z,101563.09
2022-08-21T01:23:12.331Z,101557.84
2022-08-21T01:26:37.250Z,101563.69
2022-08-21T01:30:07.273Z,101559.72
2022-08-21T01:33:31.229Z,101562.00
2022-08-21T01:36:54.229Z,101551.88
2022-08-21T01:40:17.294Z,101554.59
2022-08-21T01:43:39.358Z,101559.56
2022-08-21T01:47:04.282Z,101560.47
2022-08-21T01:50:29.372Z,101567.75
2022-08-21T01:53:52.242Z,101576.50
2022-08-21T01:57:15.264Z,101572.53
2022-08-21T02:00:38.277Z,101570.13
2022-08-21T02:04:02.284Z,101550.91
2022-08-21T02:07:25.259Z,101560.91
2022-08-21T02:10:50.266Z,101558.81
2022-08-21T02:14:13.245Z,101543.38
2022-08-21T02:17:36.275Z,101546.94
2022-08-21T02:21:04.254Z,101552.81
2022-08-21T02:24:21.264Z,101548.72
2022-08-21T02:27:44.338Z,101555.28
2022-08-21T02:31:08.299Z,101557.84
2022-08-21T02:34:31.282Z,101556.19
2022-08-21T02:38:01.353Z,101558.50
2022-08-21T02:41:26.366Z,101558.19
2022-08-21T02:44:49.242Z,101565.94
2022-08-21T02:48:13.308Z,101550.44
2022-08-21T02:51:36.267Z,101543.25
2022-08-21T02:54:58.323Z,101552.44
2022-08-21T02:58:22.235Z,101553.78
2022-08-21T03:01:46.324Z,101552.84
2022-08-21T03:05:10.271Z,101546.22
2022-08-21T03:08:33.387Z,101547.25
2022-08-21T03:11:56.299Z,101531.03
2022-08-21T03:15:20.339Z,101530.78
2022-08-21T03:18:43.261Z,101530.59
2022-08-21T03:22:06.356Z,101530.28
2022-08-21T03:25:39.946Z,101533.03
2022-08-21T03:29:06.303Z,101528.81
2022-08-21T03:32:30.288Z,101540.19
2022-08-21T03:35:54.305Z,101553.91
2022-08-21T03:39:18.277Z,101552.09
2022-08-21T03:42:42.307Z,101551.66
2022-08-21T03:46:05.306Z,101549.72
2022-08-21T03:49:28.404Z,101544.97
2022-08-21T03:52:51.480Z,101548.81
2022-08-21T03:56:14.248Z,101553.19
2022-08-21T03:59:37.451Z,101544.47
2022-08-21T04:03:01.288Z,101534.66
2022-08-21T04:06:25.338Z,101540.38
2022-08-21T04:09:48.332Z,101545.81
2022-08-21T04:13:11.329Z,101554.28
2022-08-21T04:16:34.286Z,101550.94
2022-08-21T04:19:58.310Z,101562.59
2022-08-21T04:23:24.269Z,101559.63
2022-08-21T04:26:48.291Z,101550.09
2022-08-21T04:30:11.358Z,101560.50
2022-08-21T04:33:35.285Z,101562.63
2022-08-21T04:36:59.349Z,101563.13
2022-08-21T04:40:24.329Z,101557.28
2022-08-21T04:43:47.326Z,101564.41
2022-08-21T04:47:10.304Z,101564.03
2022-08-21T04:50:33.366Z,101573.81
2022-08-21T04:54:04.309Z,101567.38
2022-08-21T04:57:47.392Z,101580.88
2022-08-21T05:01:13.403Z,101576.38
2022-08-21T05:04:37.368Z,101581.81
2022-08-21T05:08:01.286Z,101574.75
2022-08-21T05:11:24.378Z,101572.94
2022-08-21T05:14:51.326Z,101570.50
2022-08-21T05:18:15.347Z,101571.56
2022-08-21T05:21:39.315Z,101582.69
2022-08-21T05:25:01.336Z,101584.13
2022-08-21T05:28:27.292Z,101589.81
2022-08-21T05:31:51.358Z,101588.28
2022-08-21T05:35:14.318Z,101586.41
2022-08-21T05:38:38.343Z,101598.91
2022-08-21T05:42:01.320Z,101599.16
2022-08-21T05:45:41.983Z,101588.84
2022-08-21T05:49:06.343Z,101596.75
2022-08-21T05:52:34.338Z,101601.84
2022-08-21T05:55:57.310Z,101599.50
2022-08-21T05:59:22.320Z,101601.84
2022-08-21T06:02:45.351Z,101610.06
2022-08-21T06:06:08.310Z,101607.59
2022-08-21T06:09:31.375Z,101617.38
2022-08-21T06:12:54.346Z,101616.44
2022-08-21T06:16:26.361Z,101622.53
2022-08-21T06:19:49.344Z,101627.16
2022-08-21T06:23:12.328Z,101634.94
2022-08-21T06:26:35.470Z,101639.41
2022-08-21T06:29:58.373Z,101639.25
2022-08-21T06:33:21.382Z,101634.63
2022-08-21T06:36:44.338Z,101649.69
2022-08-21T06:40:12.463Z,101639.00
2022-08-21T06:43:39.866Z,101646.31
2022-08-21T06:47:03.382Z,101647.06
2022-08-21T06:50:26.375Z,101646.88
2022-08-21T06:53:49.406Z,101656.53
2022-08-21T06:57:12.417Z,101654.97
2022-08-21T07:00:35.381Z,101638.69
2022-08-21T07:03:58.396Z,101641.63
2022-08-21T07:07:22.709Z,101645.56
2022-08-21T07:10:46.595Z,101644.78
2022-08-21T07:14:09.388Z,101650.31
2022-08-21T07:17:35.605Z,101647.53
2022-08-21T07:20:58.591Z,101649.50
2022-08-21T07:24:21.623Z,101650.97
2022-08-21T07:27:44.441Z,101659.84
2022-08-21T07:31:08.366Z,101649.75
2022-08-21T07:34:32.391Z,101656.28
2022-08-21T07:37:56.368Z,101650.31
2022-08-21T07:41:29.439Z,101651.97
2022-08-21T07:44:53.180Z,101644.72
2022-08-21T07:48:19.509Z,101652.78
2022-08-21T07:51:43.363Z,101652.50
2022-08-21T07:55:06.889Z,101653.19
2022-08-21T07:58:31.379Z,101659.44
2022-08-21T08:01:54.431Z,101661.38
2022-08-21T08:05:18.393Z,101663.19
2022-08-21T08:08:41.431Z,101658.19
2022-08-21T08:12:04.400Z,101652.34
2022-08-21T08:15:29.404Z,101652.34
2022-08-21T08:18:53.432Z,101654.88
2022-08-21T08:22:16.452Z,101655.13
2022-08-21T08:25:40.435Z,101657.34
2022-08-21T08:29:04.407Z,101667.00
2022-08-21T08:32:27.413Z,101654.75
2022-08-21T08:35:50.465Z,101658.59
2022-08-21T08:39:13.411Z,101671.81
2022-08-21T08:42:51.469Z,101671.19
2022-08-21T08:46:15.444Z,101658.34
2022-08-21T08:49:51.466Z,101664.84
2022-08-21T08:53:16.428Z,101658.88
2022-08-21T08:56:42.433Z,101659.72
2022-08-21T09:00:06.442Z,101652.41
2022-08-21T09:03:31.449Z,101663.00
2022-08-21T09:06:58.550Z,101658.78
2022-08-21T09:10:26.441Z,101666.81
2022-08-21T09:13:52.430Z,101677.19
2022-08-21T09:17:18.458Z,101677.75
2022-08-21T09:20:47.457Z,101683.34
2022-08-21T09:24:19.481Z,101683.28
2022-08-21T09:27:42.455Z,101678.28
2022-08-21T09:31:07.433Z,101675.81
2022-08-21T09:34:40.432Z,101666.78
2022-08-21T09:38:14.483Z,101665.53
2022-08-21T09:41:47.475Z,101656.53
2022-08-21T09:45:21.038Z,101660.56
2022-08-21T09:48:39.480Z,101666.13
2022-08-21T09:52:07.453Z,101665.28
2022-08-21T09:55:57.466Z,101667.53
2022-08-21T09:59:41.442Z,101676.22
2022-08-21T10:03:05.626Z,101676.09
2022-08-21T10:06:39.432Z,101677.41
2022-08-21T10:10:14.545Z,101671.38
2022-08-21T10:13:48.440Z,101673.53
2022-08-21T10:17:28.505Z,101667.03
2022-08-21T10:20:54.435Z,101663.25
2022-08-21T10:24:36.456Z,101659.88
2022-08-21T10:28:13.727Z,101662.22
2022-08-21T10:31:38.456Z,101663.34
2022-08-21T10:35:04.460Z,101665.78
2022-08-21T10:38:48.656Z,101665.94
2022-08-21T10:42:29.450Z,101663.50
2022-08-21T10:45:55.508Z,101660.31
2022-08-21T10:49:30.486Z,101656.41
2022-08-21T10:53:02.492Z,101654.66
2022-08-21T10:56:48.514Z,101652.69
2022-08-21T11:00:14.493Z,101649.03
2022-08-21T11:03:51.458Z,101659.72
2022-08-21T11:07:35.582Z,101658.44
2022-08-21T11:11:02.493Z,101653.97
2022-08-21T11:14:50.389Z,101648.56
2022-08-21T11:18:18.491Z,101647.06
2022-08-21T11:21:44.479Z,101644.47
2022-08-21T11:25:33.382Z,101642.59
2022-08-21T11:29:05.517Z,101640.56
2022-08-21T11:32:34.499Z,101633.28
2022-08-21T11:35:57.490Z,101629.03
2022-08-21T11:39:20.501Z,101638.56
2022-08-21T11:42:43.495Z,101627.25
2022-08-21T11:46:08.631Z,101624.13
2022-08-21T11:49:50.480Z,101622.84
2022-08-21T11:53:37.626Z,101617.53
2022-08-21T11:57:08.498Z,101614.47
2022-08-21T12:00:40.556Z,101605.06
2022-08-21T12:04:14.484Z,101601.31
2022-08-21T12:07:46.556Z,101594.50
2022-08-21T12:11:24.487Z,101598.75
2022-08-21T12:14:59.503Z,101599.69
2022-08-21T12:18:41.477Z,101595.34
2022-08-21T12:22:04.562Z,101587.47
2022-08-21T12:25:32.483Z,101584.75
2022-08-21T12:28:55.510Z,101575.72
2022-08-21T12:32:20.518Z,101567.97
2022-08-21T12:36:02.542Z,101562.34
2022-08-21T12:39:30.541Z,101571.25
2022-08-21T12:42:58.843Z,101566.56
2022-08-21T12:46:22.531Z,101563.28
2022-08-21T12:49:48.496Z,101561.00
2022-08-21T12:53:20.461Z,101560.44
2022-08-21T12:56:48.507Z,101546.56
2022-08-21T13:00:23.539Z,101540.69
2022-08-21T13:03:46.539Z,101519.53
2022-08-21T13:07:10.534Z,101529.75
2022-08-21T13:10:36.517Z,101535.84
2022-08-21T13:14:02.854Z,101529.06
2022-08-21T13:17:29.533Z,101528.38
2022-08-21T13:20:56.517Z,101527.38
2022-08-21T13:24:42.476Z,101526.22
2022-08-21T13:28:35.519Z,101525.44
2022-08-21T13:32:03.543Z,101524.22
2022-08-21T13:35:28.518Z,101510.34
2022-08-21T13:38:51.548Z,101504.94
2022-08-21T13:42:16.572Z,101500.03
2022-08-21T13:45:41.576Z,101504.94
2022-08-21T13:48:58.084Z,101494.47
2022-08-21T13:52:23.541Z,101493.16
2022-08-21T13:55:51.509Z,101485.44
2022-08-21T13:59:15.566Z,101485.06
2022-08-21T14:02:39.557Z,101480.59
2022-08-21T14:05:56.553Z,101479.41
2022-08-21T14:09:24.570Z,101482.34
2022-08-21T14:12:56.515Z,101476.25
2022-08-21T14:16:26.584Z,101469.66
2022-08-21T14:19:54.513Z,101465.44
2022-08-21T14:23:17.589Z,101464.72
2022-08-21T14:26:40.552Z,101452.41
2022-08-21T14:30:03.599Z,101448.03
2022-08-21T14:33:27.551Z,101443.69
2022-08-21T14:36:50.612Z,101442.53
2022-08-21T14:40:13.719Z,101437.09
2022-08-21T14:43:36.598Z,101439.69
2022-08-21T14:46:59.550Z,101435.13
2022-08-21T14:50:22.595Z,101420.63
2022-08-21T14:53:46.553Z,101419.22
2022-08-21T14:57:10.601Z,101413.56
2022-08-21T15:00:35.754Z,101410.31
2022-08-21T15:04:00.589Z,101415.59
2022-08-21T15:07:23.548Z,101416.28
2022-08-21T15:11:10.006Z,101407.38
2022-08-21T15:14:37.589Z,101402.31
2022-08-21T15:18:00.657Z,101401.84
2022-08-21T15:21:24.621Z,101397.50
2022-08-21T15:24:47.569Z,101394.28
2022-08-21T15:28:11.566Z,101400.75
2022-08-21T15:31:35.612Z,101399.63
2022-08-21T15:34:58.615Z,101398.19
2022-08-21T15:38:21.626Z,101397.50
2022-08-21T15:41:43.582Z,101390.53
2022-08-21T15:45:06.600Z,101391.84
2022-08-21T15:48:29.604Z,101390.78
2022-08-21T15:51:53.608Z,101394.88
2022-08-21T15:55:17.577Z,101394.66
2022-08-21T15:58:40.612Z,101396.84
2022-08-21T16:02:05.692Z,101406.50
2022-08-21T16:05:28.558Z,101396.78
2022-08-21T16:08:51.632Z,101387.16
2022-08-21T16:12:15.575Z,101392.00
2022-08-21T16:15:38.627Z,101393.25
2022-08-21T16:19:01.589Z,101391.59
2022-08-21T16:22:24.589Z,101383.97
2022-08-21T16:25:49.584Z,101380.78
2022-08-21T16:29:12.589Z,101389.00
2022-08-21T16:32:36.593Z,101379.81
2022-08-21T16:36:00.598Z,101381.03
2022-08-21T16:39:23.647Z,101383.47
2022-08-21T16:42:46.567Z,101389.72
2022-08-21T16:46:09.646Z,101392.53
2022-08-21T16:49:33.600Z,101394.66
2022-08-21T16:52:57.764Z,101397.09
2022-08-21T16:56:21.725Z,101389.91
2022-08-21T16:59:45.644Z,101382.03
2022-08-21T17:03:10.616Z,101386.16
2022-08-21T17:06:33.638Z,101381.59
2022-08-21T17:09:56.635Z,101391.34
2022-08-21T17:13:20.633Z,101388.19
2022-08-21T17:16:43.650Z,101396.41
2022-08-21T17:20:16.800Z,101397.09
2022-08-21T17:23:39.636Z,101404.88
2022-08-21T17:27:04.674Z,101402.16
2022-08-21T17:30:28.734Z,101405.84
2022-08-21T17:33:58.652Z,101397.50
2022-08-21T17:37:21.607Z,101387.88
2022-08-21T17:40:39.652Z,101382.13
2022-08-21T17:44:03.665Z,101381.34
2022-08-21T17:47:28.634Z,101384.50
2022-08-21T17:50:51.653Z,101389.13
2022-08-21T17:54:08.268Z,101383.94
2022-08-21T17:57:27.674Z,101385.47
2022-08-21T18:00:50.691Z,101385.00
2022-08-21T18:04:13.677Z,101391.81
2022-08-21T18:07:38.631Z,101378.03
2022-08-21T18:11:02.714Z,101383.09
2022-08-21T18:14:27.617Z,101383.44
2022-08-21T18:17:51.678Z,101382.16
2022-08-21T18:21:14.637Z,101384.41
2022-08-21T18:24:37.687Z,101382.53
2022-08-21T18:28:01.648Z,101372.34
2022-08-21T18:31:25.666Z,101368.81
2022-08-21T18:34:50.642Z,101378.19
2022-08-21T18:38:13.679Z,101371.03
2022-08-21T18:41:37.703Z,101370.63
2022-08-21T18:45:02.685Z,101373.88
2022-08-21T18:48:29.436Z,101380.00
2022-08-21T18:51:52.742Z,101392.81
2022-08-21T18:55:16.674Z,101390.13
2022-08-21T18:58:39.667Z,101396.56
2022-08-21T19:02:02.732Z,101396.56
2022-08-21T19:05:25.677Z,101393.41
2022-08-21T19:08:50.678Z,101394.09
2022-08-21T19:12:14.776Z,101391.28
2022-08-21T19:15:37.719Z,101406.44
2022-08-21T19:19:02.649Z,101396.34
2022-08-21T19:22:25.687Z,101397.50
2022-08-21T19:25:51.816Z,101397.97
2022-08-21T19:29:16.690Z,101394.94
2022-08-21T19:32:39.748Z,101398.84
2022-08-21T19:36:06.717Z,101412.00
2022-08-21T19:39:31.693Z,101406.81
2022-08-21T19:42:55.777Z,101409.47
2022-08-21T19:46:18.677Z,101411.53
2022-08-21T19:49:42.695Z,101418.88
2022-08-21T19:53:12.029Z,101422.38
2022-08-21T19:56:36.777Z,101405.78
2022-08-21T20:00:00.666Z,101424.59
2022-08-21T20:03:24.710Z,101428.31
2022-08-21T20:06:47.662Z,101430.63
2022-08-21T20:10:10.723Z,101435.88
2022-08-21T20:13:33.690Z,101446.63
2022-08-21T20:16:56.739Z,101448.16
2022-08-21T20:20:19.686Z,101445.88
2022-08-21T20:23:48.924Z,101446.38
2022-08-21T20:27:12.686Z,101455.97
2022-08-21T20:30:35.724Z,101457.66
2022-08-21T20:33:58.708Z,101450.78
2022-08-21T20:37:35.874Z,101446.91
2022-08-21T20:41:09.982Z,101440.03
2022-08-21T20:44:46.829Z,101441.50
2022-08-21T20:48:16.710Z,101449.66
2022-08-21T20:51:43.695Z,101435.13
2022-08-21T20:55:16.677Z,101428.31
2022-08-21T20:58:38.747Z,101434.16
2022-08-21T21:02:01.712Z,101431.13
2022-08-21T21:05:27.738Z,101427.78
2022-08-21T21:09:02.705Z,101413.13
2022-08-21T21:12:30.718Z,101405.22
2022-08-21T21:15:53.707Z,101406.97
2022-08-21T21:19:20.943Z,101405.94
2022-08-21T21:22:50.712Z,101425.22
2022-08-21T21:26:31.891Z,101424.06
2022-08-21T21:30:02.694Z,101408.38
2022-08-21T21:33:24.757Z,101412.78
2022-08-21T21:36:56.145Z,101415.59
2022-08-21T21:40:27.760Z,101418.38
2022-08-21T21:43:56.688Z,101420.53
2022-08-21T21:47:31.763Z,101411.50
2022-08-21T21:51:24.693Z,101407.66
2022-08-21T21:54:54.764Z,101415.19
2022-08-21T21:58:37.725Z,101416.50
2022-08-21T22:02:10.745Z,101402.38
2022-08-21T22:05:51.735Z,101391.03
2022-08-21T22:09:26.726Z,101382.06
2022-08-21T22:12:58.752Z,101377.56
2022-08-21T22:16:32.754Z,101379.25
2022-08-21T22:19:55.722Z,101377.63
2022-08-21T22:23:20.722Z,101378.59
2022-08-21T22:26:54.765Z,101372.69
2022-08-21T22:30:20.725Z,101393.59
2022-08-21T22:33:43.767Z,101397.84
2022-08-21T22:37:10.783Z,101389.25
2022-08-21T22:40:51.763Z,101380.59
2022-08-21T22:44:15.776Z,101398.25
2022-08-21T22:47:57.764Z,101400.22
2022-08-21T22:51:22.784Z,101409.22
2022-08-21T22:54:54.725Z,101402.50
2022-08-21T22:58:19.790Z,101394.34
2022-08-21T23:01:42.737Z,101379.28
2022-08-21T23:05:09.731Z,101368.38
2022-08-21T23:08:44.252Z,101368.56
2022-08-21T23:12:21.079Z,101365.41
2022-08-21T23:15:47.738Z,101370.94
2022-08-21T23:19:15.799Z,101375.22
2022-08-21T23:22:58.859Z,101359.03
2022-08-21T23:26:22.860Z,101341.81
2022-08-21T23:30:09.749Z,101333.78
2022-08-21T23:33:34.176Z,101327.72
2022-08-21T23:41:12.796Z,101331.72
2022-08-21T23:44:44.777Z,101321.38
2022-08-21T23:48:19.769Z,101316.84
2022-08-21T23:51:59.753Z,101306.22
2022-08-21T23:55:36.805Z,101313.75
2022-08-21T23:59:04.773Z,101306.66
